sensor_id;sensor_type;location;lat;lon;timestamp;P1;durP1;ratioP1;P2;durP2;ratioP2
11582;SDS011;34299;50.820;4.548;2024-02-15T00:01:02;9.23;;;3.33;;
11582;SDS011;34299;50.820;4.548;2024-02-15T00:03:30;4.53;;;3.00;;
11582;SDS011;34299;50.820;4.548;2024-02-15T00:05:58;6.80;;;2.87;;
11582;SDS011;34299;50.820;4.548;2024-02-15T00:08:25;7.67;;;3.10;;
11582;SDS011;34299;50.820;4.548;2024-02-15T00:10:52;8.40;;;2.70;;
11582;SDS011;34299;50.820;4.548;2024-02-15T00:13:19;6.93;;;3.97;;
11582;SDS011;34299;50.820;4.548;2024-02-15T00:15:46;11.27;;;2.90;;
11582;SDS011;34299;50.820;4.548;2024-02-15T00:18:14;7.83;;;2.93;;
11582;SDS011;34299;50.820;4.548;2024-02-15T00:20:42;4.37;;;2.97;;
11582;SDS011;34299;50.820;4.548;2024-02-15T00:23:10;6.10;;;3.47;;
11582;SDS011;34299;50.820;4.548;2024-02-15T00:25:37;6.00;;;2.87;;
11582;SDS011;34299;50.820;4.548;2024-02-15T00:28:05;6.60;;;2.80;;
11582;SDS011;34299;50.820;4.548;2024-02-15T00:30:32;6.83;;;2.97;;
11582;SDS011;34299;50.820;4.548;2024-02-15T00:32:59;6.23;;;2.93;;
11582;SDS011;34299;50.820;4.548;2024-02-15T00:35:28;5.13;;;2.97;;
11582;SDS011;34299;50.820;4.548;2024-02-15T00:37:56;5.70;;;2.47;;
11582;SDS011;34299;50.820;4.548;2024-02-15T00:40:23;6.87;;;3.03;;
11582;SDS011;34299;50.820;4.548;2024-02-15T00:42:50;7.60;;;2.97;;
11582;SDS011;34299;50.820;4.548;2024-02-15T00:45:17;4.77;;;2.60;;
11582;SDS011;34299;50.820;4.548;2024-02-15T00:47:44;5.67;;;2.67;;
11582;SDS011;34299;50.820;4.548;2024-02-15T00:50:11;5.77;;;2.70;;
11582;SDS011;34299;50.820;4.548;2024-02-15T00:52:38;10.00;;;2.77;;
11582;SDS011;34299;50.820;4.548;2024-02-15T00:55:06;8.13;;;2.63;;
11582;SDS011;34299;50.820;4.548;2024-02-15T00:57:34;6.63;;;2.70;;
11582;SDS011;34299;50.820;4.548;2024-02-15T01:00:00;5.93;;;2.40;;
11582;SDS011;34299;50.820;4.548;2024-02-15T01:02:28;5.73;;;2.17;;
11582;SDS011;34299;50.820;4.548;2024-02-15T01:04:56;7.00;;;2.53;;
11582;SDS011;34299;50.820;4.548;2024-02-15T01:07:24;7.70;;;2.40;;
11582;SDS011;34299;50.820;4.548;2024-02-15T01:09:53;7.43;;;2.50;;
11582;SDS011;34299;50.820;4.548;2024-02-15T01:12:21;6.00;;;2.27;;
11582;SDS011;34299;50.820;4.548;2024-02-15T01:14:48;7.40;;;2.50;;
11582;SDS011;34299;50.820;4.548;2024-02-15T01:17:15;3.80;;;2.10;;
11582;SDS011;34299;50.820;4.548;2024-02-15T01:19:42;7.40;;;2.70;;
11582;SDS011;34299;50.820;4.548;2024-02-15T01:22:10;6.37;;;2.37;;
11582;SDS011;34299;50.820;4.548;2024-02-15T01:24:37;5.00;;;2.50;;
11582;SDS011;34299;50.820;4.548;2024-02-15T01:27:04;6.93;;;2.20;;
11582;SDS011;34299;50.820;4.548;2024-02-15T01:29:33;3.50;;;2.00;;
11582;SDS011;34299;50.820;4.548;2024-02-15T01:32:00;5.83;;;2.47;;
11582;SDS011;34299;50.820;4.548;2024-02-15T01:34:28;5.50;;;2.33;;
11582;SDS011;34299;50.820;4.548;2024-02-15T01:36:54;3.23;;;2.00;;
11582;SDS011;34299;50.820;4.548;2024-02-15T01:39:21;6.03;;;2.63;;
11582;SDS011;34299;50.820;4.548;2024-02-15T01:41:48;5.87;;;2.23;;
11582;SDS011;34299;50.820;4.548;2024-02-15T01:44:16;5.87;;;2.20;;
11582;SDS011;34299;50.820;4.548;2024-02-15T01:46:46;7.13;;;2.33;;
11582;SDS011;34299;50.820;4.548;2024-02-15T01:49:15;8.60;;;2.07;;
11582;SDS011;34299;50.820;4.548;2024-02-15T01:51:42;3.63;;;2.03;;
11582;SDS011;34299;50.820;4.548;2024-02-15T01:54:09;5.23;;;2.20;;
11582;SDS011;34299;50.820;4.548;2024-02-15T01:56:36;8.40;;;2.17;;
11582;SDS011;34299;50.820;4.548;2024-02-15T01:59:04;4.33;;;2.03;;
11582;SDS011;34299;50.820;4.548;2024-02-15T02:01:31;6.40;;;2.47;;
11582;SDS011;34299;50.820;4.548;2024-02-15T02:04:01;13.03;;;2.47;;
11582;SDS011;34299;50.820;4.548;2024-02-15T02:06:28;4.90;;;2.30;;
11582;SDS011;34299;50.820;4.548;2024-02-15T02:08:56;3.53;;;1.70;;
11582;SDS011;34299;50.820;4.548;2024-02-15T02:11:23;4.30;;;2.10;;
11582;SDS011;34299;50.820;4.548;2024-02-15T02:13:53;3.97;;;2.17;;
11582;SDS011;34299;50.820;4.548;2024-02-15T02:16:26;8.33;;;2.13;;
11582;SDS011;34299;50.820;4.548;2024-02-15T02:18:54;8.37;;;2.17;;
11582;SDS011;34299;50.820;4.548;2024-02-15T02:21:23;2.20;;;1.63;;
11582;SDS011;34299;50.820;4.548;2024-02-15T02:23:54;3.43;;;1.83;;
11582;SDS011;34299;50.820;4.548;2024-02-15T02:26:24;2.70;;;1.83;;
11582;SDS011;34299;50.820;4.548;2024-02-15T02:28:51;4.60;;;1.80;;
11582;SDS011;34299;50.820;4.548;2024-02-15T02:31:19;4.53;;;1.87;;
11582;SDS011;34299;50.820;4.548;2024-02-15T02:33:47;3.17;;;1.43;;
11582;SDS011;34299;50.820;4.548;2024-02-15T02:36:17;5.83;;;2.00;;
11582;SDS011;34299;50.820;4.548;2024-02-15T02:38:43;4.53;;;1.70;;
11582;SDS011;34299;50.820;4.548;2024-02-15T02:41:11;5.30;;;2.13;;
11582;SDS011;34299;50.820;4.548;2024-02-15T02:43:40;4.23;;;1.70;;
11582;SDS011;34299;50.820;4.548;2024-02-15T02:46:09;3.87;;;1.60;;
11582;SDS011;34299;50.820;4.548;2024-02-15T02:48:36;7.63;;;1.80;;
11582;SDS011;34299;50.820;4.548;2024-02-15T02:51:04;4.67;;;2.00;;
11582;SDS011;34299;50.820;4.548;2024-02-15T02:53:32;3.07;;;1.70;;
11582;SDS011;34299;50.820;4.548;2024-02-15T02:55:59;6.37;;;1.80;;
11582;SDS011;34299;50.820;4.548;2024-02-15T02:58:26;4.60;;;1.80;;
11582;SDS011;34299;50.820;4.548;2024-02-15T03:00:55;3.07;;;1.60;;
11582;SDS011;34299;50.820;4.548;2024-02-15T03:03:25;7.20;;;1.67;;
11582;SDS011;34299;50.820;4.548;2024-02-15T03:05:52;5.07;;;1.70;;
11582;SDS011;34299;50.820;4.548;2024-02-15T03:08:20;3.83;;;1.87;;
11582;SDS011;34299;50.820;4.548;2024-02-15T03:10:47;3.17;;;1.50;;
11582;SDS011;34299;50.820;4.548;2024-02-15T03:13:14;3.50;;;1.80;;
11582;SDS011;34299;50.820;4.548;2024-02-15T03:15:44;4.87;;;1.53;;
11582;SDS011;34299;50.820;4.548;2024-02-15T03:18:14;5.20;;;1.77;;
11582;SDS011;34299;50.820;4.548;2024-02-15T03:20:41;3.60;;;1.70;;
11582;SDS011;34299;50.820;4.548;2024-02-15T03:23:08;3.63;;;1.80;;
11582;SDS011;34299;50.820;4.548;2024-02-15T03:25:36;7.20;;;1.87;;
11582;SDS011;34299;50.820;4.548;2024-02-15T03:28:03;4.17;;;1.30;;
11582;SDS011;34299;50.820;4.548;2024-02-15T03:30:31;2.70;;;1.47;;
11582;SDS011;34299;50.820;4.548;2024-02-15T03:33:00;3.10;;;1.50;;
11582;SDS011;34299;50.820;4.548;2024-02-15T03:35:29;4.27;;;1.67;;
11582;SDS011;34299;50.820;4.548;2024-02-15T03:37:56;9.47;;;2.23;;
11582;SDS011;34299;50.820;4.548;2024-02-15T03:40:24;3.77;;;1.60;;
11582;SDS011;34299;50.820;4.548;2024-02-15T03:42:51;2.70;;;1.53;;
11582;SDS011;34299;50.820;4.548;2024-02-15T03:45:18;2.57;;;1.60;;
11582;SDS011;34299;50.820;4.548;2024-02-15T03:47:46;2.50;;;1.93;;
11582;SDS011;34299;50.820;4.548;2024-02-15T03:50:12;4.93;;;1.70;;
11582;SDS011;34299;50.820;4.548;2024-02-15T03:52:41;4.00;;;1.40;;
11582;SDS011;34299;50.820;4.548;2024-02-15T03:55:08;7.33;;;1.43;;
11582;SDS011;34299;50.820;4.548;2024-02-15T03:57:35;3.53;;;1.80;;
11582;SDS011;34299;50.820;4.548;2024-02-15T04:00:06;3.23;;;1.33;;
11582;SDS011;34299;50.820;4.548;2024-02-15T04:02:36;5.00;;;2.70;;
11582;SDS011;34299;50.820;4.548;2024-02-15T04:05:05;2.33;;;1.40;;
11582;SDS011;34299;50.820;4.548;2024-02-15T04:07:34;4.37;;;1.33;;
11582;SDS011;34299;50.820;4.548;2024-02-15T04:10:04;3.73;;;1.77;;
11582;SDS011;34299;50.820;4.548;2024-02-15T04:12:32;2.87;;;1.30;;
11582;SDS011;34299;50.820;4.548;2024-02-15T04:14:59;3.67;;;1.40;;
11582;SDS011;34299;50.820;4.548;2024-02-15T04:17:30;6.97;;;1.90;;
11582;SDS011;34299;50.820;4.548;2024-02-15T04:20:00;5.03;;;1.60;;
11582;SDS011;34299;50.820;4.548;2024-02-15T04:22:28;4.17;;;1.50;;
11582;SDS011;34299;50.820;4.548;2024-02-15T04:24:56;3.20;;;1.80;;
11582;SDS011;34299;50.820;4.548;2024-02-15T04:27:25;3.13;;;1.53;;
11582;SDS011;34299;50.820;4.548;2024-02-15T04:29:52;4.63;;;1.63;;
11582;SDS011;34299;50.820;4.548;2024-02-15T04:32:19;3.33;;;1.60;;
11582;SDS011;34299;50.820;4.548;2024-02-15T04:34:47;5.30;;;1.63;;
11582;SDS011;34299;50.820;4.548;2024-02-15T04:37:14;2.77;;;1.53;;
11582;SDS011;34299;50.820;4.548;2024-02-15T04:39:42;2.37;;;1.20;;
11582;SDS011;34299;50.820;4.548;2024-02-15T04:42:09;3.27;;;2.03;;
11582;SDS011;34299;50.820;4.548;2024-02-15T04:44:39;1.83;;;1.50;;
11582;SDS011;34299;50.820;4.548;2024-02-15T04:47:06;3.93;;;2.10;;
11582;SDS011;34299;50.820;4.548;2024-02-15T04:49:33;2.07;;;1.17;;
11582;SDS011;34299;50.820;4.548;2024-02-15T04:52:03;2.07;;;1.30;;
11582;SDS011;34299;50.820;4.548;2024-02-15T04:54:31;4.27;;;1.53;;
11582;SDS011;34299;50.820;4.548;2024-02-15T04:56:58;5.07;;;1.87;;
11582;SDS011;34299;50.820;4.548;2024-02-15T04:59:26;3.13;;;1.40;;
11582;SDS011;34299;50.820;4.548;2024-02-15T05:01:55;4.13;;;1.67;;
11582;SDS011;34299;50.820;4.548;2024-02-15T05:04:22;2.33;;;1.30;;
11582;SDS011;34299;50.820;4.548;2024-02-15T05:06:49;4.27;;;1.63;;
11582;SDS011;34299;50.820;4.548;2024-02-15T05:09:16;2.80;;;1.50;;
11582;SDS011;34299;50.820;4.548;2024-02-15T05:11:43;6.03;;;1.40;;
11582;SDS011;34299;50.820;4.548;2024-02-15T05:14:12;4.77;;;1.63;;
11582;SDS011;34299;50.820;4.548;2024-02-15T05:16:44;2.50;;;1.30;;
11582;SDS011;34299;50.820;4.548;2024-02-15T05:19:14;2.23;;;1.40;;
11582;SDS011;34299;50.820;4.548;2024-02-15T05:21:42;2.47;;;1.37;;
11582;SDS011;34299;50.820;4.548;2024-02-15T05:24:10;5.23;;;1.60;;
11582;SDS011;34299;50.820;4.548;2024-02-15T05:26:38;3.23;;;1.33;;
11582;SDS011;34299;50.820;4.548;2024-02-15T05:29:07;2.07;;;1.07;;
11582;SDS011;34299;50.820;4.548;2024-02-15T05:31:35;4.97;;;1.37;;
11582;SDS011;34299;50.820;4.548;2024-02-15T05:34:04;2.93;;;1.30;;
11582;SDS011;34299;50.820;4.548;2024-02-15T05:36:34;3.37;;;1.30;;
11582;SDS011;34299;50.820;4.548;2024-02-15T05:39:01;1.67;;;1.20;;
11582;SDS011;34299;50.820;4.548;2024-02-15T05:41:29;3.00;;;1.37;;
11582;SDS011;34299;50.820;4.548;2024-02-15T05:43:57;3.33;;;1.20;;
11582;SDS011;34299;50.820;4.548;2024-02-15T05:46:24;5.63;;;1.50;;
11582;SDS011;34299;50.820;4.548;2024-02-15T05:48:53;3.60;;;1.37;;
11582;SDS011;34299;50.820;4.548;2024-02-15T05:51:20;1.73;;;0.90;;
11582;SDS011;34299;50.820;4.548;2024-02-15T05:53:49;6.03;;;1.30;;
11582;SDS011;34299;50.820;4.548;2024-02-15T05:56:19;3.70;;;1.20;;
11582;SDS011;34299;50.820;4.548;2024-02-15T05:58:46;4.93;;;1.23;;
11582;SDS011;34299;50.820;4.548;2024-02-15T06:01:13;4.20;;;1.57;;
11582;SDS011;34299;50.820;4.548;2024-02-15T06:03:40;3.57;;;1.30;;
11582;SDS011;34299;50.820;4.548;2024-02-15T06:06:09;3.87;;;1.60;;
11582;SDS011;34299;50.820;4.548;2024-02-15T06:08:36;5.17;;;1.37;;
11582;SDS011;34299;50.820;4.548;2024-02-15T06:11:05;4.07;;;1.23;;
11582;SDS011;34299;50.820;4.548;2024-02-15T06:13:32;1.27;;;1.00;;
11582;SDS011;34299;50.820;4.548;2024-02-15T06:15:59;2.13;;;1.17;;
11582;SDS011;34299;50.820;4.548;2024-02-15T06:18:27;1.37;;;1.13;;
11582;SDS011;34299;50.820;4.548;2024-02-15T06:20:54;2.60;;;1.30;;
11582;SDS011;34299;50.820;4.548;2024-02-15T06:23:22;2.17;;;1.50;;
11582;SDS011;34299;50.820;4.548;2024-02-15T06:25:51;5.63;;;1.40;;
11582;SDS011;34299;50.820;4.548;2024-02-15T06:28:20;2.07;;;1.10;;
11582;SDS011;34299;50.820;4.548;2024-02-15T06:31:01;4.67;;;1.33;;
11582;SDS011;34299;50.820;4.548;2024-02-15T06:33:46;3.53;;;1.20;;
11582;SDS011;34299;50.820;4.548;2024-02-15T06:36:30;2.93;;;1.47;;
11582;SDS011;34299;50.820;4.548;2024-02-15T06:39:15;3.83;;;1.10;;
11582;SDS011;34299;50.820;4.548;2024-02-15T06:41:58;1.53;;;1.10;;
11582;SDS011;34299;50.820;4.548;2024-02-15T06:44:27;3.93;;;1.20;;
11582;SDS011;34299;50.820;4.548;2024-02-15T06:46:54;2.50;;;1.00;;
11582;SDS011;34299;50.820;4.548;2024-02-15T06:49:22;3.53;;;1.30;;
11582;SDS011;34299;50.820;4.548;2024-02-15T06:51:49;1.97;;;1.30;;
11582;SDS011;34299;50.820;4.548;2024-02-15T06:54:17;2.23;;;1.10;;
11582;SDS011;34299;50.820;4.548;2024-02-15T06:56:44;3.37;;;1.30;;
11582;SDS011;34299;50.820;4.548;2024-02-15T06:59:12;2.83;;;1.30;;
11582;SDS011;34299;50.820;4.548;2024-02-15T07:01:41;2.50;;;1.20;;
11582;SDS011;34299;50.820;4.548;2024-02-15T07:04:08;3.17;;;1.60;;
11582;SDS011;34299;50.820;4.548;2024-02-15T07:06:36;1.50;;;1.40;;
11582;SDS011;34299;50.820;4.548;2024-02-15T07:09:03;3.23;;;1.27;;
11582;SDS011;34299;50.820;4.548;2024-02-15T07:11:31;4.27;;;1.47;;
11582;SDS011;34299;50.820;4.548;2024-02-15T07:13:59;3.77;;;1.10;;
11582;SDS011;34299;50.820;4.548;2024-02-15T07:16:26;4.40;;;1.40;;
11582;SDS011;34299;50.820;4.548;2024-02-15T07:18:54;2.90;;;1.60;;
11582;SDS011;34299;50.820;4.548;2024-02-15T07:21:21;3.17;;;1.10;;
11582;SDS011;34299;50.820;4.548;2024-02-15T07:23:52;3.17;;;1.20;;
11582;SDS011;34299;50.820;4.548;2024-02-15T07:26:19;6.63;;;1.67;;
11582;SDS011;34299;50.820;4.548;2024-02-15T07:28:49;2.60;;;1.23;;
11582;SDS011;34299;50.820;4.548;2024-02-15T07:31:18;3.30;;;1.20;;
11582;SDS011;34299;50.820;4.548;2024-02-15T07:33:46;2.53;;;1.03;;
11582;SDS011;34299;50.820;4.548;2024-02-15T07:36:15;2.83;;;1.20;;
11582;SDS011;34299;50.820;4.548;2024-02-15T07:38:45;2.20;;;1.20;;
11582;SDS011;34299;50.820;4.548;2024-02-15T07:41:13;1.73;;;1.30;;
11582;SDS011;34299;50.820;4.548;2024-02-15T07:43:40;5.23;;;1.30;;
11582;SDS011;34299;50.820;4.548;2024-02-15T07:46:10;1.67;;;1.03;;
11582;SDS011;34299;50.820;4.548;2024-02-15T07:48:39;4.50;;;1.47;;
11582;SDS011;34299;50.820;4.548;2024-02-15T07:51:10;2.43;;;1.40;;
11582;SDS011;34299;50.820;4.548;2024-02-15T07:53:40;1.70;;;1.40;;
11582;SDS011;34299;50.820;4.548;2024-02-15T07:56:07;2.27;;;1.27;;
11582;SDS011;34299;50.820;4.548;2024-02-15T07:58:37;4.73;;;1.30;;
11582;SDS011;34299;50.820;4.548;2024-02-15T08:01:06;2.73;;;1.17;;
11582;SDS011;34299;50.820;4.548;2024-02-15T08:03:34;1.93;;;1.00;;
11582;SDS011;34299;50.820;4.548;2024-02-15T08:06:01;2.97;;;1.40;;
11582;SDS011;34299;50.820;4.548;2024-02-15T08:08:31;3.90;;;1.47;;
11582;SDS011;34299;50.820;4.548;2024-02-15T08:11:02;2.67;;;1.40;;
11582;SDS011;34299;50.820;4.548;2024-02-15T08:13:29;2.80;;;1.20;;
11582;SDS011;34299;50.820;4.548;2024-02-15T08:15:56;1.87;;;1.30;;
11582;SDS011;34299;50.820;4.548;2024-02-15T08:18:23;2.77;;;1.17;;
11582;SDS011;34299;50.820;4.548;2024-02-15T08:20:50;2.13;;;1.30;;
11582;SDS011;34299;50.820;4.548;2024-02-15T08:23:17;1.57;;;1.10;;
11582;SDS011;34299;50.820;4.548;2024-02-15T08:25:44;3.80;;;1.23;;
11582;SDS011;34299;50.820;4.548;2024-02-15T08:28:13;3.37;;;1.30;;
11582;SDS011;34299;50.820;4.548;2024-02-15T08:30:40;2.67;;;1.40;;
11582;SDS011;34299;50.820;4.548;2024-02-15T08:33:07;5.77;;;1.10;;
11582;SDS011;34299;50.820;4.548;2024-02-15T08:35:36;2.93;;;1.30;;
11582;SDS011;34299;50.820;4.548;2024-02-15T08:38:05;3.37;;;1.33;;
11582;SDS011;34299;50.820;4.548;2024-02-15T08:40:32;1.40;;;1.30;;
11582;SDS011;34299;50.820;4.548;2024-02-15T08:43:00;2.33;;;1.33;;
11582;SDS011;34299;50.820;4.548;2024-02-15T08:45:29;3.20;;;1.17;;
11582;SDS011;34299;50.820;4.548;2024-02-15T08:47:56;2.17;;;1.30;;
11582;SDS011;34299;50.820;4.548;2024-02-15T08:50:23;2.90;;;1.23;;
11582;SDS011;34299;50.820;4.548;2024-02-15T08:52:50;1.93;;;1.37;;
11582;SDS011;34299;50.820;4.548;2024-02-15T08:55:17;1.37;;;1.10;;
11582;SDS011;34299;50.820;4.548;2024-02-15T08:57:45;3.03;;;1.40;;
11582;SDS011;34299;50.820;4.548;2024-02-15T09:00:13;1.87;;;1.20;;
11582;SDS011;34299;50.820;4.548;2024-02-15T09:02:43;3.47;;;1.17;;
11582;SDS011;34299;50.820;4.548;2024-02-15T09:05:10;3.50;;;1.17;;
11582;SDS011;34299;50.820;4.548;2024-02-15T09:07:39;2.00;;;1.30;;
11582;SDS011;34299;50.820;4.548;2024-02-15T09:10:08;2.90;;;1.53;;
11582;SDS011;34299;50.820;4.548;2024-02-15T09:12:36;2.83;;;1.30;;
11582;SDS011;34299;50.820;4.548;2024-02-15T09:15:05;5.07;;;1.50;;
11582;SDS011;34299;50.820;4.548;2024-02-15T09:17:33;4.57;;;1.30;;
11582;SDS011;34299;50.820;4.548;2024-02-15T09:20:07;2.60;;;1.30;;
11582;SDS011;34299;50.820;4.548;2024-02-15T09:22:39;5.47;;;1.50;;
11582;SDS011;34299;50.820;4.548;2024-02-15T09:25:07;1.87;;;1.40;;
11582;SDS011;34299;50.820;4.548;2024-02-15T09:27:35;3.47;;;1.37;;
11582;SDS011;34299;50.820;4.548;2024-02-15T09:30:03;1.40;;;1.30;;
11582;SDS011;34299;50.820;4.548;2024-02-15T09:32:34;2.60;;;1.33;;
11582;SDS011;34299;50.820;4.548;2024-02-15T09:35:01;2.17;;;1.30;;
11582;SDS011;34299;50.820;4.548;2024-02-15T09:37:34;3.03;;;1.30;;
11582;SDS011;34299;50.820;4.548;2024-02-15T09:40:02;1.87;;;1.27;;
11582;SDS011;34299;50.820;4.548;2024-02-15T09:42:32;1.97;;;1.27;;
11582;SDS011;34299;50.820;4.548;2024-02-15T09:45:00;1.80;;;1.20;;
11582;SDS011;34299;50.820;4.548;2024-02-15T09:47:29;1.90;;;1.43;;
11582;SDS011;34299;50.820;4.548;2024-02-15T09:50:01;2.13;;;1.40;;
11582;SDS011;34299;50.820;4.548;2024-02-15T09:52:29;3.30;;;1.50;;
11582;SDS011;34299;50.820;4.548;2024-02-15T09:55:02;3.63;;;1.63;;
11582;SDS011;34299;50.820;4.548;2024-02-15T09:57:29;2.93;;;2.17;;
11582;SDS011;34299;50.820;4.548;2024-02-15T09:59:58;3.57;;;1.97;;
11582;SDS011;34299;50.820;4.548;2024-02-15T10:02:26;3.33;;;2.37;;
11582;SDS011;34299;50.820;4.548;2024-02-15T10:04:53;7.60;;;2.53;;
11582;SDS011;34299;50.820;4.548;2024-02-15T10:07:22;4.37;;;2.33;;
11582;SDS011;34299;50.820;4.548;2024-02-15T10:09:49;5.03;;;2.27;;
11582;SDS011;34299;50.820;4.548;2024-02-15T10:12:18;4.97;;;2.33;;
11582;SDS011;34299;50.820;4.548;2024-02-15T10:14:47;4.17;;;2.27;;
11582;SDS011;34299;50.820;4.548;2024-02-15T10:17:17;2.50;;;1.90;;
11582;SDS011;34299;50.820;4.548;2024-02-15T10:19:45;4.63;;;2.00;;
11582;SDS011;34299;50.820;4.548;2024-02-15T10:22:29;3.57;;;1.60;;
11582;SDS011;34299;50.820;4.548;2024-02-15T10:25:05;3.33;;;1.80;;
11582;SDS011;34299;50.820;4.548;2024-02-15T10:27:38;4.50;;;1.77;;
11582;SDS011;34299;50.820;4.548;2024-02-15T10:32:50;4.07;;;1.50;;
11582;SDS011;34299;50.820;4.548;2024-02-15T10:35:20;5.37;;;1.60;;
11582;SDS011;34299;50.820;4.548;2024-02-15T10:37:48;2.23;;;1.23;;
11582;SDS011;34299;50.820;4.548;2024-02-15T10:40:19;3.70;;;1.60;;
11582;SDS011;34299;50.820;4.548;2024-02-15T10:42:48;4.00;;;1.53;;
11582;SDS011;34299;50.820;4.548;2024-02-15T10:45:18;2.70;;;1.40;;
11582;SDS011;34299;50.820;4.548;2024-02-15T10:47:45;4.83;;;1.87;;
11582;SDS011;34299;50.820;4.548;2024-02-15T10:50:13;2.73;;;1.70;;
11582;SDS011;34299;50.820;4.548;2024-02-15T10:52:43;2.50;;;1.80;;
11582;SDS011;34299;50.820;4.548;2024-02-15T10:55:19;1.70;;;1.40;;
11582;SDS011;34299;50.820;4.548;2024-02-15T10:57:53;3.00;;;1.63;;
11582;SDS011;34299;50.820;4.548;2024-02-15T11:00:28;2.60;;;1.60;;
11582;SDS011;34299;50.820;4.548;2024-02-15T11:03:02;2.73;;;1.27;;
11582;SDS011;34299;50.820;4.548;2024-02-15T11:05:31;2.87;;;1.33;;
11582;SDS011;34299;50.820;4.548;2024-02-15T11:08:01;2.53;;;1.53;;
11582;SDS011;34299;50.820;4.548;2024-02-15T11:10:31;2.53;;;1.10;;
11582;SDS011;34299;50.820;4.548;2024-02-15T11:13:00;3.47;;;1.17;;
11582;SDS011;34299;50.820;4.548;2024-02-15T11:15:40;1.50;;;1.20;;
11582;SDS011;34299;50.820;4.548;2024-02-15T11:18:10;2.07;;;0.90;;
11582;SDS011;34299;50.820;4.548;2024-02-15T11:20:47;2.87;;;1.50;;
11582;SDS011;34299;50.820;4.548;2024-02-15T11:23:27;2.63;;;0.97;;
11582;SDS011;34299;50.820;4.548;2024-02-15T11:25:55;3.40;;;1.20;;
11582;SDS011;34299;50.820;4.548;2024-02-15T11:28:43;1.93;;;1.30;;
11582;SDS011;34299;50.820;4.548;2024-02-15T11:40:12;2.00;;;1.43;;
11582;SDS011;34299;50.820;4.548;2024-02-15T11:42:39;2.30;;;1.67;;
11582;SDS011;34299;50.820;4.548;2024-02-15T11:45:07;1.60;;;1.30;;
11582;SDS011;34299;50.820;4.548;2024-02-15T11:47:36;2.40;;;1.20;;
11582;SDS011;34299;50.820;4.548;2024-02-15T11:50:05;2.40;;;1.40;;
11582;SDS011;34299;50.820;4.548;2024-02-15T11:52:37;1.73;;;1.03;;
11582;SDS011;34299;50.820;4.548;2024-02-15T11:55:05;2.70;;;1.30;;
11582;SDS011;34299;50.820;4.548;2024-02-15T11:57:35;1.73;;;1.40;;
11582;SDS011;34299;50.820;4.548;2024-02-15T12:00:20;4.37;;;1.40;;
11582;SDS011;34299;50.820;4.548;2024-02-15T12:03:05;1.60;;;1.20;;
11582;SDS011;34299;50.820;4.548;2024-02-15T12:05:46;3.13;;;1.30;;
11582;SDS011;34299;50.820;4.548;2024-02-15T12:08:32;3.30;;;1.63;;
11582;SDS011;34299;50.820;4.548;2024-02-15T12:11:16;2.10;;;1.73;;
11582;SDS011;34299;50.820;4.548;2024-02-15T12:14:01;3.23;;;2.13;;
11582;SDS011;34299;50.820;4.548;2024-02-15T12:16:47;2.43;;;1.30;;
11582;SDS011;34299;50.820;4.548;2024-02-15T12:19:41;3.60;;;1.63;;
11582;SDS011;34299;50.820;4.548;2024-02-15T12:22:08;3.43;;;1.30;;
11582;SDS011;34299;50.820;4.548;2024-02-15T12:24:36;3.07;;;1.13;;
11582;SDS011;34299;50.820;4.548;2024-02-15T12:27:03;1.17;;;1.07;;
11582;SDS011;34299;50.820;4.548;2024-02-15T12:29:30;2.33;;;1.10;;
11582;SDS011;34299;50.820;4.548;2024-02-15T12:32:01;1.00;;;0.87;;
11582;SDS011;34299;50.820;4.548;2024-02-15T12:34:29;3.03;;;1.13;;
11582;SDS011;34299;50.820;4.548;2024-02-15T12:37:04;3.00;;;0.83;;
11582;SDS011;34299;50.820;4.548;2024-02-15T12:39:34;2.40;;;1.00;;
11582;SDS011;34299;50.820;4.548;2024-02-15T12:42:02;3.27;;;1.60;;
11582;SDS011;34299;50.820;4.548;2024-02-15T12:44:29;2.70;;;1.73;;
11582;SDS011;34299;50.820;4.548;2024-02-15T12:46:59;1.70;;;1.07;;
11582;SDS011;34299;50.820;4.548;2024-02-15T12:49:29;1.50;;;1.10;;
11582;SDS011;34299;50.820;4.548;2024-02-15T12:55:08;2.63;;;1.10;;
11582;SDS011;34299;50.820;4.548;2024-02-15T12:57:42;1.30;;;1.17;;
11582;SDS011;34299;50.820;4.548;2024-02-15T13:00:11;2.17;;;1.07;;
11582;SDS011;34299;50.820;4.548;2024-02-15T13:02:43;4.57;;;0.87;;
11582;SDS011;34299;50.820;4.548;2024-02-15T13:05:12;1.00;;;0.90;;
11582;SDS011;34299;50.820;4.548;2024-02-15T13:07:39;1.03;;;0.77;;
11582;SDS011;34299;50.820;4.548;2024-02-15T13:10:07;0.97;;;0.80;;
11582;SDS011;34299;50.820;4.548;2024-02-15T13:12:35;3.10;;;1.10;;
11582;SDS011;34299;50.820;4.548;2024-02-15T13:15:03;8.00;;;2.83;;
11582;SDS011;34299;50.820;4.548;2024-02-15T13:17:32;5.90;;;2.10;;
11582;SDS011;34299;50.820;4.548;2024-02-15T13:20:00;4.10;;;1.70;;
11582;SDS011;34299;50.820;4.548;2024-02-15T13:22:37;1.17;;;0.80;;
11582;SDS011;34299;50.820;4.548;2024-02-15T13:25:05;1.73;;;0.90;;
11582;SDS011;34299;50.820;4.548;2024-02-15T13:27:33;0.77;;;0.77;;
11582;SDS011;34299;50.820;4.548;2024-02-15T13:30:01;1.80;;;0.97;;
11582;SDS011;34299;50.820;4.548;2024-02-15T13:32:29;1.20;;;1.10;;
11582;SDS011;34299;50.820;4.548;2024-02-15T13:34:56;2.83;;;1.00;;
11582;SDS011;34299;50.820;4.548;2024-02-15T13:37:24;0.93;;;0.70;;
11582;SDS011;34299;50.820;4.548;2024-02-15T13:39:52;0.97;;;0.87;;
11582;SDS011;34299;50.820;4.548;2024-02-15T13:42:20;3.43;;;0.90;;
11582;SDS011;34299;50.820;4.548;2024-02-15T13:44:47;1.40;;;0.80;;
11582;SDS011;34299;50.820;4.548;2024-02-15T13:47:14;1.07;;;0.80;;
11582;SDS011;34299;50.820;4.548;2024-02-15T13:49:41;1.40;;;1.10;;
11582;SDS011;34299;50.820;4.548;2024-02-15T13:52:09;2.03;;;1.07;;
11582;SDS011;34299;50.820;4.548;2024-02-15T13:54:36;2.07;;;1.23;;
11582;SDS011;34299;50.820;4.548;2024-02-15T13:57:04;0.83;;;0.70;;
11582;SDS011;34299;50.820;4.548;2024-02-15T13:59:32;1.37;;;1.00;;
11582;SDS011;34299;50.820;4.548;2024-02-15T14:02:00;2.30;;;1.00;;
11582;SDS011;34299;50.820;4.548;2024-02-15T14:04:28;1.07;;;0.73;;
11582;SDS011;34299;50.820;4.548;2024-02-15T14:06:57;3.23;;;0.90;;
11582;SDS011;34299;50.820;4.548;2024-02-15T14:09:25;1.13;;;0.77;;
11582;SDS011;34299;50.820;4.548;2024-02-15T14:11:52;2.63;;;1.03;;
11582;SDS011;34299;50.820;4.548;2024-02-15T14:14:21;1.23;;;0.87;;
11582;SDS011;34299;50.820;4.548;2024-02-15T14:16:48;1.23;;;0.90;;
11582;SDS011;34299;50.820;4.548;2024-02-15T14:19:15;1.53;;;0.70;;
11582;SDS011;34299;50.820;4.548;2024-02-15T14:21:42;1.20;;;0.80;;
11582;SDS011;34299;50.820;4.548;2024-02-15T14:24:10;1.37;;;0.90;;
11582;SDS011;34299;50.820;4.548;2024-02-15T14:26:38;0.97;;;0.93;;
11582;SDS011;34299;50.820;4.548;2024-02-15T14:29:05;2.00;;;0.87;;
11582;SDS011;34299;50.820;4.548;2024-02-15T14:31:33;2.20;;;1.10;;
11582;SDS011;34299;50.820;4.548;2024-02-15T14:34:17;3.33;;;1.00;;
11582;SDS011;34299;50.820;4.548;2024-02-15T14:36:45;0.77;;;0.77;;
11582;SDS011;34299;50.820;4.548;2024-02-15T14:39:13;1.27;;;0.83;;
11582;SDS011;34299;50.820;4.548;2024-02-15T14:41:40;1.90;;;0.90;;
11582;SDS011;34299;50.820;4.548;2024-02-15T14:44:08;1.10;;;1.00;;
11582;SDS011;34299;50.820;4.548;2024-02-15T14:46:39;2.10;;;1.13;;
11582;SDS011;34299;50.820;4.548;2024-02-15T14:49:06;1.33;;;1.10;;
11582;SDS011;34299;50.820;4.548;2024-02-15T14:51:33;2.73;;;1.43;;
11582;SDS011;34299;50.820;4.548;2024-02-15T14:54:02;1.77;;;1.30;;
11582;SDS011;34299;50.820;4.548;2024-02-15T14:56:30;3.43;;;1.40;;
11582;SDS011;34299;50.820;4.548;2024-02-15T14:58:59;2.30;;;0.83;;
11582;SDS011;34299;50.820;4.548;2024-02-15T15:01:26;1.63;;;1.00;;
11582;SDS011;34299;50.820;4.548;2024-02-15T15:03:56;4.67;;;1.03;;
11582;SDS011;34299;50.820;4.548;2024-02-15T15:06:23;3.00;;;1.30;;
11582;SDS011;34299;50.820;4.548;2024-02-15T15:09:08;2.07;;;0.77;;
11582;SDS011;34299;50.820;4.548;2024-02-15T15:11:54;2.53;;;1.00;;
11582;SDS011;34299;50.820;4.548;2024-02-15T15:14:39;1.07;;;0.97;;